Time;durP1;ratioP1;P1;durP2;ratioP2;P2;SDS_P1;SDS_P2;PMS_P1;PMS_P2;Temp;Humidity;BMP_temperature;BMP_pressure;BME280_temperature;BME280_humidity;BME280_pressure;Samples;Min_cycle;Max_cycle;Signal;HPM_P1;HPM_P2
2023/04/28 00:01:13;;;;;;;15.50;11.10;;;;;;;4.83;100.00;101964.81;5021970;28;20213;-71
2023/04/28 00:03:39;;;;;;;15.80;11.73;;;;;;;4.75;100.00;101960.91;5025108;28;20190;-71
2023/04/28 00:06:04;;;;;;;17.40;11.27;;;;;;;4.69;100.00;101963.09;5021080;28;20198;-72
2023/04/28 00:08:30;;;;;;;13.10;10.47;;;;;;;4.68;100.00;101960.47;5025645;28;20305;-71
2023/04/28 00:10:56;;;;;;;14.07;10.97;;;;;;;4.61;100.00;101955.81;5008183;28;20196;-71
2023/04/28 00:13:21;;;;;;;15.83;11.17;;;;;;;4.58;100.00;101958.16;5019096;28;20194;-70
2023/04/28 00:15:48;;;;;;;16.63;10.60;;;;;;;4.56;100.00;101959.75;5006366;28;20261;-71
2023/04/28 00:18:14;;;;;;;17.40;11.60;;;;;;;4.48;100.00;101956.75;5020141;28;20214;-71
2023/04/28 00:20:39;;;;;;;15.67;10.53;;;;;;;4.43;100.00;101944.56;5026499;28;20182;-70
2023/04/28 00:23:05;;;;;;;13.67;10.20;;;;;;;4.39;100.00;101948.56;5021906;28;20214;-71
2023/04/28 00:25:30;;;;;;;14.50;10.37;;;;;;;4.35;100.00;101945.75;5021707;28;20195;-69
2023/04/28 00:27:56;;;;;;;18.10;11.00;;;;;;;4.31;100.00;101943.78;5018984;28;20199;-69
2023/04/28 00:30:21;;;;;;;14.80;9.90;;;;;;;4.26;100.00;101941.00;5007371;28;20225;-70
2023/04/28 00:32:47;;;;;;;14.33;10.03;;;;;;;4.15;100.00;101941.97;5006271;28;20237;-70
2023/04/28 00:35:12;;;;;;;15.17;10.80;;;;;;;4.19;100.00;101936.31;5009238;28;20194;-69
2023/04/28 00:37:38;;;;;;;15.13;10.17;;;;;;;4.08;100.00;101937.31;5008777;28;20217;-69
2023/04/28 00:40:04;;;;;;;14.10;10.30;;;;;;;4.07;100.00;101940.63;5021022;28;20218;-70
2023/04/28 00:42:30;;;;;;;15.87;9.73;;;;;;;4.02;100.00;101934.41;5006799;28;20310;-67
2023/04/28 00:44:55;;;;;;;15.00;10.20;;;;;;;4.01;100.00;101927.56;5021392;28;20213;-69
2023/04/28 00:47:21;;;;;;;17.93;10.70;;;;;;;3.96;100.00;101934.00;5022985;28;20199;-69
2023/04/28 00:49:48;;;;;;;13.83;9.97;;;;;;;3.86;100.00;101924.06;5008454;28;20210;-69
2023/04/28 00:52:14;;;;;;;15.00;10.00;;;;;;;3.88;100.00;101929.25;5024323;28;20190;-71
2023/04/28 00:54:41;;;;;;;13.43;9.53;;;;;;;3.84;100.00;101927.28;5020562;28;20558;-71
2023/04/28 00:57:08;;;;;;;13.37;9.30;;;;;;;3.80;100.00;101916.09;5000991;28;20205;-68
2023/04/28 00:59:34;;;;;;;16.73;9.77;;;;;;;3.79;100.00;101910.94;5018153;28;20882;-71
2023/04/28 01:02:00;;;;;;;15.93;9.93;;;;;;;3.73;100.00;101921.53;5019234;28;20191;-71
2023/04/28 01:04:27;;;;;;;13.00;9.33;;;;;;;3.69;100.00;101906.06;5005587;28;20731;-71
2023/04/28 01:06:54;;;;;;;15.57;9.47;;;;;;;3.66;100.00;101906.75;5006013;28;20587;-70
2023/04/28 01:09:20;;;;;;;16.10;9.83;;;;;;;3.62;100.00;101904.81;5019314;28;20215;-71
2023/04/28 01:11:46;;;;;;;15.43;10.13;;;;;;;3.64;100.00;101905.75;5006748;28;20195;-71
2023/04/28 01:14:32;;;;;;;14.23;9.87;;;;;;;3.60;100.00;101908.91;5016942;28;20294;-72
2023/04/28 01:16:58;;;;;;;17.90;10.63;;;;;;;3.52;100.00;101899.94;5009388;28;20281;-71
2023/04/28 01:19:23;;;;;;;14.27;9.23;;;;;;;3.41;100.00;101911.00;5023636;28;20203;-70
2023/04/28 01:21:51;;;;;;;13.13;9.30;;;;;;;3.42;100.00;101909.38;5007245;28;20190;-71
2023/04/28 01:24:21;;;;;;;14.83;9.63;;;;;;;3.30;100.00;101901.84;5021112;28;20671;-71
2023/04/28 01:26:46;;;;;;;15.47;9.43;;;;;;;3.37;100.00;101905.66;5016430;28;20194;-72
2023/04/28 01:29:12;;;;;;;11.97;9.10;;;;;;;3.22;100.00;101909.72;5017660;28;20237;-71
2023/04/28 01:31:37;;;;;;;14.53;9.80;;;;;;;3.22;100.00;101897.94;5007598;28;20207;-72
2023/04/28 01:34:03;;;;;;;14.10;9.40;;;;;;;3.22;100.00;101905.53;5021996;28;20194;-71
2023/04/28 01:36:29;;;;;;;14.87;10.27;;;;;;;3.21;100.00;101895.31;5021485;28;20561;-71
2023/04/28 01:38:54;;;;;;;14.40;9.87;;;;;;;3.26;100.00;101892.31;5025682;28;20742;-72
2023/04/28 01:41:21;;;;;;;14.27;9.10;;;;;;;3.28;100.00;101893.31;5016774;28;20198;-72
2023/04/28 01:43:46;;;;;;;15.47;9.73;;;;;;;3.28;100.00;101892.41;5006746;28;20224;-71
2023/04/28 01:46:12;;;;;;;14.73;10.03;;;;;;;3.27;100.00;101886.47;5015135;28;20663;-72
2023/04/28 01:48:37;;;;;;;14.30;9.70;;;;;;;3.27;100.00;101881.41;5010298;28;20233;-70
2023/04/28 01:51:03;;;;;;;18.23;9.40;;;;;;;3.21;100.00;101882.66;5010600;28;20624;-70
2023/04/28 01:53:29;;;;;;;14.90;10.00;;;;;;;3.18;100.00;101885.00;5005116;28;20190;-70
2023/04/28 01:55:55;;;;;;;14.23;9.73;;;;;;;3.19;100.00;101881.69;5004738;28;20244;-68
2023/04/28 01:58:20;;;;;;;12.77;9.07;;;;;;;3.23;100.00;101873.53;5008554;28;20201;-70
2023/04/28 02:00:46;;;;;;;15.30;9.37;;;;;;;3.27;100.00;101878.00;5006948;28;20756;-70
2023/04/28 02:03:12;;;;;;;14.20;9.03;;;;;;;3.24;100.00;101880.34;5016816;28;20198;-70
2023/04/28 02:05:38;;;;;;;12.67;8.93;;;;;;;3.24;100.00;101881.22;5010624;28;20194;-69
2023/04/28 02:08:03;;;;;;;13.00;8.73;;;;;;;3.18;100.00;101880.81;5015716;28;20218;-71
2023/04/28 02:10:29;;;;;;;14.50;8.67;;;;;;;3.16;100.00;101876.41;5004167;28;20333;-71
2023/04/28 02:12:55;;;;;;;13.50;8.97;;;;;;;3.18;100.00;101878.28;5004449;28;20802;-71
2023/04/28 02:15:20;;;;;;;12.93;9.07;;;;;;;3.11;100.00;101875.25;5020777;28;20202;-71
2023/04/28 02:17:46;;;;;;;14.73;9.00;;;;;;;3.13;100.00;101873.72;5017840;28;20252;-71
2023/04/28 02:20:13;;;;;;;11.23;9.13;;;;;;;3.15;100.00;101865.44;5021037;28;20214;-71
2023/04/28 02:22:38;;;;;;;13.20;9.23;;;;;;;3.12;100.00;101869.44;5018595;28;20194;-71
2023/04/28 02:25:05;;;;;;;11.03;8.57;;;;;;;3.11;100.00;101867.66;4998815;28;20186;-71
2023/04/28 02:27:31;;;;;;;12.47;8.27;;;;;;;3.15;100.00;101867.09;5018174;28;20539;-70
2023/04/28 02:29:56;;;;;;;13.80;8.80;;;;;;;3.14;100.00;101871.28;5004946;28;20224;-71
2023/04/28 02:32:22;;;;;;;12.90;8.70;;;;;;;3.11;100.00;101868.56;5007252;28;20241;-69
2023/04/28 02:34:54;;;;;;;11.97;7.57;;;;;;;3.04;100.00;101863.84;5026189;28;20209;-70
2023/04/28 02:37:21;;;;;;;13.07;8.67;;;;;;;3.03;100.00;101852.00;5025966;28;20202;-71
2023/04/28 02:39:48;;;;;;;14.40;8.43;;;;;;;3.03;100.00;101854.50;5008902;28;20210;-71
2023/04/28 02:42:13;;;;;;;16.60;8.13;;;;;;;3.00;100.00;101851.81;5021077;28;20198;-71
2023/04/28 02:44:39;;;;;;;12.07;8.23;;;;;;;3.09;100.00;101854.06;5017598;28;20753;-71
2023/04/28 02:47:04;;;;;;;10.30;7.37;;;;;;;3.12;100.00;101852.59;5023055;28;20229;-68
2023/04/28 02:49:30;;;;;;;13.93;7.97;;;;;;;3.14;100.00;101851.06;5021244;28;20210;-69
2023/04/28 02:51:56;;;;;;;10.57;7.83;;;;;;;3.13;100.00;101846.75;5005896;28;20187;-70
2023/04/28 02:54:27;;;;;;;10.90;7.83;;;;;;;3.21;100.00;101837.13;5017042;28;20242;-71
2023/04/28 02:56:56;;;;;;;9.77;6.90;;;;;;;3.29;100.00;101828.38;5005187;28;20293;-70
2023/04/28 02:59:22;;;;;;;10.03;7.37;;;;;;;3.28;100.00;101831.69;5015964;28;20717;-70
2023/04/28 03:01:48;;;;;;;9.70;7.07;;;;;;;3.34;100.00;101827.00;5014504;28;20197;-69
2023/04/28 03:04:14;;;;;;;8.93;6.63;;;;;;;3.38;100.00;101822.25;5025668;28;20199;-72
2023/04/28 03:06:41;;;;;;;10.40;7.27;;;;;;;3.44;100.00;101820.09;5013557;28;20213;-71
2023/04/28 03:09:07;;;;;;;10.87;6.73;;;;;;;3.48;100.00;101819.50;5023717;28;20633;-72
2023/04/28 03:11:33;;;;;;;11.50;6.70;;;;;;;3.46;100.00;101810.97;5011552;28;20252;-68
2023/04/28 03:14:00;;;;;;;8.97;6.27;;;;;;;3.49;100.00;101808.59;5021161;28;20652;-69
2023/04/28 03:16:25;;;;;;;11.00;7.03;;;;;;;3.53;100.00;101805.47;5018728;28;20676;-69
2023/04/28 03:18:51;;;;;;;9.97;6.23;;;;;;;3.51;100.00;101798.56;5025946;28;20209;-71
2023/04/28 03:21:18;;;;;;;9.07;7.07;;;;;;;3.51;100.00;101798.56;5021185;28;20191;-69
2023/04/28 03:23:43;;;;;;;10.03;6.70;;;;;;;3.62;100.00;101798.47;5007624;28;20572;-72
2023/04/28 03:26:09;;;;;;;8.27;6.33;;;;;;;3.62;100.00;101790.88;5025604;28;20198;-71
2023/04/28 03:28:34;;;;;;;8.97;7.00;;;;;;;3.65;100.00;101786.00;5002925;28;20226;-71
2023/04/28 03:31:00;;;;;;;9.50;6.17;;;;;;;3.67;100.00;101788.59;5010161;28;20198;-71
2023/04/28 03:33:25;;;;;;;10.50;6.50;;;;;;;3.63;100.00;101781.63;5021921;28;20301;-71
2023/04/28 03:35:53;;;;;;;9.33;6.67;;;;;;;3.57;100.00;101781.22;5012023;28;20237;-71
2023/04/28 03:38:18;;;;;;;9.23;6.30;;;;;;;3.52;100.00;101785.13;5019249;28;20195;-71
2023/04/28 03:40:44;;;;;;;8.97;6.57;;;;;;;3.55;100.00;101785.34;5012152;28;20790;-69
2023/04/28 03:43:10;;;;;;;11.37;6.53;;;;;;;3.68;100.00;101778.56;5022008;28;20305;-71
2023/04/28 03:45:45;;;;;;;9.20;6.53;;;;;;;3.72;100.00;101774.59;5021091;28;20273;-70
2023/04/28 03:48:11;;;;;;;9.07;6.00;;;;;;;3.70;100.00;101771.06;5023938;28;20224;-67
2023/04/28 03:50:39;;;;;;;10.53;5.97;;;;;;;3.68;100.00;101770.97;5022032;28;20296;-71
2023/04/28 03:53:05;;;;;;;8.77;6.13;;;;;;;3.68;100.00;101763.38;5005153;28;20695;-70
2023/04/28 03:55:31;;;;;;;12.20;6.57;;;;;;;3.67;100.00;101765.81;5018353;28;20206;-70
2023/04/28 03:57:57;;;;;;;9.80;6.47;;;;;;;3.65;100.00;101762.31;5021313;28;20191;-69
2023/04/28 04:00:22;;;;;;;9.23;6.60;;;;;;;3.64;100.00;101765.66;5020553;28;20207;-70
2023/04/28 04:02:51;;;;;;;9.23;5.70;;;;;;;3.64;100.00;101769.03;5016127;28;20187;-70
2023/04/28 04:05:16;;;;;;;9.23;5.60;;;;;;;3.64;100.00;101771.56;5020493;28;20205;-70
2023/04/28 04:07:42;;;;;;;9.30;6.73;;;;;;;3.62;100.00;101760.47;5019745;28;20198;-69
2023/04/28 04:10:08;;;;;;;10.33;6.77;;;;;;;3.66;100.00;101759.00;5019664;28;20276;-70
2023/04/28 04:12:35;;;;;;;8.00;6.37;;;;;;;3.67;100.00;101751.50;5019365;28;20672;-68
2023/04/28 04:15:01;;;;;;;8.43;5.93;;;;;;;3.70;100.00;101756.78;5010367;28;20237;-68
2023/04/28 04:17:26;;;;;;;9.43;6.13;;;;;;;3.72;100.00;101760.25;5022745;28;20264;-69
2023/04/28 04:19:52;;;;;;;8.53;5.73;;;;;;;3.77;100.00;101758.88;5026528;28;20730;-71
2023/04/28 04:22:17;;;;;;;7.60;5.83;;;;;;;3.78;100.00;101758.09;5024701;28;20198;-68
2023/04/28 04:24:43;;;;;;;10.10;5.90;;;;;;;3.79;100.00;101747.19;5012275;28;20251;-70
2023/04/28 04:27:08;;;;;;;11.40;6.10;;;;;;;3.83;100.00;101745.72;5023628;28;20250;-71
2023/04/28 04:29:37;;;;;;;8.87;5.40;;;;;;;3.82;100.00;101741.44;5008838;28;20233;-70
2023/04/28 04:32:09;;;;;;;8.50;5.70;;;;;;;3.82;100.00;101736.38;5015731;28;20202;-70
2023/04/28 04:34:36;;;;;;;11.53;5.67;;;;;;;3.84;100.00;101734.81;5022988;28;20214;-71
2023/04/28 04:37:02;;;;;;;6.97;5.57;;;;;;;3.93;100.00;101736.25;5008221;28;20194;-70
2023/04/28 04:39:27;;;;;;;9.73;5.80;;;;;;;3.93;100.00;101738.78;5022732;28;20206;-71
2023/04/28 04:41:53;;;;;;;7.87;5.63;;;;;;;4.05;100.00;101733.56;5017201;28;20202;-71
2023/04/28 04:44:33;;;;;;;7.93;6.13;;;;;;;4.12;100.00;101734.00;5020986;28;20675;-70
2023/04/28 04:46:59;;;;;;;7.17;5.50;;;;;;;4.19;100.00;101732.72;5005402;28;20218;-71
2023/04/28 04:49:25;;;;;;;13.13;5.63;;;;;;;4.26;100.00;101729.75;5005835;28;21119;-69
2023/04/28 04:51:50;;;;;;;6.70;5.07;;;;;;;4.36;100.00;101726.94;4997377;28;20189;-71
2023/04/28 04:54:16;;;;;;;7.10;4.93;;;;;;;4.56;100.00;101726.44;5011256;28;20196;-70
2023/04/28 04:56:45;;;;;;;8.13;4.60;;;;;;;4.65;100.00;101717.69;5008520;28;20186;-72
2023/04/28 04:59:14;;;;;;;8.37;4.43;;;;;;;4.74;100.00;101710.59;5019712;28;20218;-72
2023/04/28 05:01:48;;;;;;;8.50;5.00;;;;;;;4.82;100.00;101706.84;5007467;28;20186;-70
2023/04/28 05:04:14;;;;;;;7.77;4.57;;;;;;;4.89;100.00;101713.13;5020557;28;20195;-71
2023/04/28 05:06:39;;;;;;;9.50;5.00;;;;;;;4.98;100.00;101698.41;5010004;28;20695;-72
2023/04/28 05:09:05;;;;;;;8.33;4.80;;;;;;;5.04;100.00;101699.63;5023882;28;20215;-70
2023/04/28 05:11:31;;;;;;;5.23;4.03;;;;;;;5.13;100.00;101696.72;5009502;28;20198;-70
2023/04/28 05:13:57;;;;;;;7.07;4.53;;;;;;;5.22;100.00;101685.41;5015879;28;20195;-74
2023/04/28 05:16:23;;;;;;;8.60;4.63;;;;;;;5.33;100.00;101676.69;5001727;28;20219;-70
2023/04/28 05:19:15;;;;;;;8.90;4.60;;;;;;;5.46;100.00;101673.13;5023541;28;20222;-70
2023/04/28 05:21:40;;;;;;;8.23;4.67;;;;;;;5.55;100.00;101654.16;5018793;28;20210;-71
2023/04/28 05:24:06;;;;;;;5.60;4.13;;;;;;;5.63;100.00;101636.78;4985367;28;20285;-68
2023/04/28 05:26:32;;;;;;;6.93;4.40;;;;;;;5.71;100.00;101633.84;5003987;28;20208;-70
2023/04/28 05:29:05;;;;;;;7.73;4.47;;;;;;;5.82;100.00;101626.78;5008008;28;20313;-72
2023/04/28 05:31:30;;;;;;;7.03;4.23;;;;;;;5.92;100.00;101607.00;5020423;28;20280;-71
2023/04/28 05:33:59;;;;;;;6.00;4.47;;;;;;;6.07;100.00;101601.78;5024344;28;20205;-69
2023/04/28 05:36:26;;;;;;;5.90;4.40;;;;;;;6.20;100.00;101584.69;5004751;28;20827;-71
2023/04/28 05:38:52;;;;;;;6.00;4.13;;;;;;;6.34;100.00;101540.44;5006398;28;20703;-72
2023/04/28 05:41:21;;;;;;;5.80;4.10;;;;;;;6.45;100.00;101524.00;4989784;28;20205;-69
2023/04/28 05:43:49;;;;;;;6.50;4.50;;;;;;;6.56;100.00;101512.66;4999306;28;20195;-70
2023/04/28 05:46:16;;;;;;;6.30;4.10;;;;;;;6.70;100.00;101531.97;5009503;28;20281;-73
2023/04/28 05:48:42;;;;;;;6.17;4.07;;;;;;;6.79;100.00;101501.88;5023475;28;20233;-71
2023/04/28 05:51:09;;;;;;;5.60;4.00;;;;;;;6.93;100.00;101466.81;5005610;28;20190;-68
2023/04/28 05:53:34;;;;;;;8.20;4.30;;;;;;;7.01;100.00;101437.50;5009008;28;20244;-71
2023/04/28 05:56:00;;;;;;;5.40;4.20;;;;;;;7.05;100.00;101417.31;5010356;28;20679;-71
2023/04/28 05:58:25;;;;;;;5.87;3.70;;;;;;;7.26;100.00;101437.72;5008198;28;20320;-69
2023/04/28 06:00:52;;;;;;;7.40;3.77;;;;;;;7.38;100.00;101438.22;5010891;28;20273;-67
2023/04/28 06:03:18;;;;;;;4.33;3.20;;;;;;;7.50;100.00;101385.22;5025513;28;20193;-69
2023/04/28 06:05:44;;;;;;;5.27;3.33;;;;;;;7.56;100.00;101362.53;5007280;28;20543;-71
2023/04/28 06:08:12;;;;;;;6.13;3.80;;;;;;;7.66;100.00;101329.84;5021726;28;20582;-69
2023/04/28 06:10:37;;;;;;;4.30;3.30;;;;;;;7.81;100.00;101339.72;5013858;28;20210;-72
2023/04/28 06:13:05;;;;;;;7.37;3.90;;;;;;;8.02;100.00;101338.84;5005144;28;21054;-68
2023/04/28 06:15:31;;;;;;;8.77;3.73;;;;;;;8.19;100.00;101353.09;5021013;28;20594;-70
2023/04/28 06:17:58;;;;;;;4.47;3.07;;;;;;;8.27;100.00;101270.13;5026889;28;20190;-70
2023/04/28 06:20:23;;;;;;;8.87;4.10;;;;;;;8.28;100.00;101228.47;5023010;28;20224;-70
2023/04/28 06:22:49;;;;;;;8.87;3.30;;;;;;;8.26;100.00;101225.03;5008359;28;20270;-71
2023/04/28 06:25:16;;;;;;;7.37;3.90;;;;;;;8.37;100.00;101203.28;5023199;28;20198;-71
2023/04/28 06:27:45;;;;;;;7.50;3.20;;;;;;;8.58;100.00;101193.81;5006676;28;20213;-70
2023/04/28 06:30:18;;;;;;;9.27;3.40;;;;;;;8.64;100.00;101195.66;5022733;28;20217;-70
2023/04/28 06:32:43;;;;;;;3.80;3.47;;;;;;;8.81;100.00;101187.72;5025755;28;20570;-71
2023/04/28 06:35:08;;;;;;;6.00;3.30;;;;;;;8.90;100.00;101164.19;5024452;28;20190;-71
2023/04/28 06:37:34;;;;;;;8.03;3.57;;;;;;;8.99;100.00;101154.25;5022096;28;20194;-71
2023/04/28 06:40:00;;;;;;;3.63;3.13;;;;;;;9.19;100.00;101156.59;5028847;28;20631;-71
2023/04/28 06:42:26;;;;;;;4.97;3.50;;;;;;;9.30;100.00;101141.59;5012504;28;20706;-70
2023/04/28 06:44:57;;;;;;;5.90;3.50;;;;;;;9.40;100.00;101135.91;5013049;28;20214;-70
2023/04/28 06:47:26;;;;;;;4.23;3.30;;;;;;;9.56;100.00;101092.91;5012613;28;20198;-71
2023/04/28 06:49:51;;;;;;;9.07;3.60;;;;;;;9.78;99.12;101062.00;5028307;28;20529;-70
2023/04/28 06:52:17;;;;;;;4.03;3.20;;;;;;;9.92;99.90;101064.88;5031703;28;20195;-70
2023/04/28 06:54:42;;;;;;;5.40;2.87;;;;;;;9.79;91.76;101022.81;5023850;28;20202;-71
2023/04/28 06:57:08;;;;;;;8.20;3.83;;;;;;;9.88;92.05;101012.81;5013639;28;20233;-71
2023/04/28 06:59:33;;;;;;;4.80;3.23;;;;;;;10.05;92.53;101003.84;5025285;28;20820;-68
2023/04/28 07:01:59;;;;;;;8.63;3.77;;;;;;;10.21;90.25;101000.84;5031132;28;20187;-70
2023/04/28 07:04:26;;;;;;;5.07;3.87;;;;;;;10.35;82.64;100937.16;5022063;28;20199;-72
2023/04/28 07:06:51;;;;;;;6.93;3.40;;;;;;;10.28;88.93;100971.97;5024724;28;20313;-70
2023/04/28 07:09:17;;;;;;;4.37;3.60;;;;;;;10.44;86.09;100968.06;5029039;28;20301;-70
2023/04/28 07:11:43;;;;;;;7.87;3.30;;;;;;;10.50;85.07;100957.97;5029872;28;21018;-68
2023/04/28 07:14:08;;;;;;;5.33;3.80;;;;;;;10.62;82.60;100959.09;5029054;28;20221;-68
2023/04/28 07:16:35;;;;;;;5.93;3.53;;;;;;;10.77;83.17;100950.84;5026488;28;20222;-72
2023/04/28 07:19:00;;;;;;;5.20;3.30;;;;;;;10.59;84.84;100964.16;5024998;28;20214;-71
2023/04/28 07:21:27;;;;;;;5.63;3.37;;;;;;;10.61;81.64;100942.00;5024876;28;20205;-69
2023/04/28 07:23:55;;;;;;;6.37;3.67;;;;;;;10.90;83.19;100958.81;5026468;28;20195;-70
2023/04/28 07:26:22;;;;;;;6.43;3.67;;;;;;;11.32;87.06;100987.84;5013428;28;20216;-72
2023/04/28 07:28:50;;;;;;;4.50;2.90;;;;;;;12.10;90.53;101024.28;5026964;28;20309;-71
2023/04/28 07:31:16;;;;;;;4.40;3.77;;;;;;;11.60;76.70;100915.72;5029150;28;20202;-71
2023/04/28 07:33:42;;;;;;;7.00;3.70;;;;;;;11.57;79.00;100923.31;5006940;28;20186;-70
2023/04/28 07:36:07;;;;;;;5.53;4.03;;;;;;;11.74;77.17;100923.59;5021124;28;20202;-73
2023/04/28 07:38:34;;;;;;;5.10;3.27;;;;;;;11.55;73.65;100909.59;5023505;28;20296;-69
2023/04/28 07:41:00;;;;;;;6.77;3.90;;;;;;;11.84;72.95;100882.72;5028765;28;20186;-73
2023/04/28 07:43:26;;;;;;;3.50;3.20;;;;;;;12.35;71.33;100885.16;5028343;28;20723;-72
2023/04/28 07:45:51;;;;;;;22.23;7.83;;;;;;;11.93;70.49;100870.03;5027956;28;20240;-72
2023/04/28 07:48:17;;;;;;;6.87;4.17;;;;;;;12.12;69.22;100884.00;5026670;28;20202;-71
2023/04/28 07:50:42;;;;;;;11.80;5.00;;;;;;;12.29;69.72;100877.38;5014141;28;20224;-72
2023/04/28 07:53:08;;;;;;;7.90;3.90;;;;;;;12.35;66.82;100903.97;5027669;28;20202;-73
2023/04/28 07:55:33;;;;;;;5.43;3.70;;;;;;;12.41;65.95;100958.03;5027269;28;20202;-71
2023/04/28 07:57:59;;;;;;;5.77;3.70;;;;;;;12.31;65.55;100963.84;5030081;28;20564;-72
2023/04/28 08:00:25;;;;;;;6.63;3.70;;;;;;;12.46;67.90;100994.91;5029828;28;20217;-72
2023/04/28 08:02:50;;;;;;;5.97;4.00;;;;;;;12.63;66.66;100984.84;5025340;28;20198;-71
2023/04/28 08:05:16;;;;;;;5.33;3.90;;;;;;;12.47;66.55;100986.34;5025565;28;20268;-71
2023/04/28 08:07:42;;;;;;;5.93;3.87;;;;;;;12.69;64.55;100978.09;5006137;28;20210;-70
2023/04/28 08:10:11;;;;;;;299.50;50.23;;;;;;;12.94;68.43;101020.34;5024427;28;20301;-69
2023/04/28 08:12:37;;;;;;;6.23;3.40;;;;;;;13.02;63.47;100974.25;5026622;28;20301;-72
2023/04/28 08:15:03;;;;;;;4.43;3.07;;;;;;;12.93;64.94;101013.50;5029663;28;20203;-73
2023/04/28 08:17:29;;;;;;;5.10;3.27;;;;;;;13.06;64.47;101014.53;5025071;28;20667;-71
2023/04/28 08:19:54;;;;;;;5.67;3.40;;;;;;;13.16;61.87;101001.81;5025359;28;20285;-71
2023/04/28 08:22:20;;;;;;;7.90;3.73;;;;;;;13.25;62.24;101007.06;5024287;28;20194;-69
2023/04/28 08:24:45;;;;;;;28.80;6.10;;;;;;;13.16;61.53;101008.69;5024166;28;20217;-70
2023/04/28 08:27:11;;;;;;;5.17;3.53;;;;;;;13.38;62.16;101020.91;5029602;28;20668;-71
2023/04/28 08:29:38;;;;;;;4.50;3.10;;;;;;;13.80;60.54;100999.03;5028445;28;20564;-71
2023/04/28 08:32:05;;;;;;;7.13;3.47;;;;;;;13.96;59.40;100998.34;5028785;28;20230;-71
2023/04/28 08:34:31;;;;;;;5.23;3.93;;;;;;;13.85;57.99;101005.09;5021923;28;20293;-69
2023/04/28 08:36:57;;;;;;;8.77;3.83;;;;;;;13.76;58.70;101035.91;5025567;28;20213;-70
2023/04/28 08:39:25;;;;;;;6.03;3.07;;;;;;;13.96;56.54;101026.66;5027155;28;20211;-69
2023/04/28 08:41:51;;;;;;;10.63;3.70;;;;;;;13.94;56.01;101040.34;5027341;28;20190;-71
2023/04/28 08:44:17;;;;;;;8.13;3.40;;;;;;;14.31;55.64;101037.28;5011889;28;20628;-71
2023/04/28 08:46:43;;;;;;;5.20;3.63;;;;;;;14.35;55.32;101067.34;5025098;28;20190;-71
2023/04/28 08:49:14;;;;;;;7.00;3.13;;;;;;;14.57;54.98;101053.75;5024632;28;20219;-71
2023/04/28 08:51:46;;;;;;;5.03;3.17;;;;;;;14.71;54.34;101072.75;5024878;28;20194;-70
2023/04/28 08:54:13;;;;;;;29.17;4.83;;;;;;;14.79;52.76;101063.34;5022343;28;20226;-70
2023/04/28 08:56:44;;;;;;;5.30;3.87;;;;;;;14.95;53.13;101078.91;5025850;28;20225;-72
2023/04/28 08:59:10;;;;;;;4.80;3.67;;;;;;;15.12;52.18;101151.22;5028377;28;20278;-71
2023/04/28 09:01:35;;;;;;;6.50;3.10;;;;;;;15.11;51.78;101165.84;5022759;28;20191;-72
2023/04/28 09:04:01;;;;;;;5.97;4.00;;;;;;;14.90;52.76;101181.19;5018853;28;20608;-71
2023/04/28 09:06:35;;;;;;;6.70;3.53;;;;;;;14.91;51.86;101167.44;5022300;28;20195;-70
2023/04/28 09:09:26;;;;;;;5.47;4.00;;;;;;;14.65;52.82;101180.97;5027688;28;20268;-71
2023/04/28 09:11:57;;;;;;;5.07;3.40;;;;;;;15.15;53.25;101185.66;5010618;28;20670;-71
2023/04/28 09:14:23;;;;;;;8.57;3.80;;;;;;;14.99;51.57;101162.31;5028029;28;20214;-68
2023/04/28 09:16:49;;;;;;;6.07;3.63;;;;;;;15.10;52.89;101186.50;5021333;28;20736;-72
2023/04/28 09:19:16;;;;;;;5.47;3.63;;;;;;;15.14;53.30;101198.56;5010148;28;20210;-71
2023/04/28 09:21:56;;;;;;;4.00;3.30;;;;;;;15.12;52.27;101166.72;5022910;28;20221;-70
2023/04/28 09:24:36;;;;;;;5.83;3.37;;;;;;;15.30;52.52;101182.31;5025141;28;20194;-71
2023/04/28 09:27:06;;;;;;;7.40;3.93;;;;;;;15.26;52.47;101177.97;5027146;28;20240;-70
2023/04/28 09:29:32;;;;;;;7.77;4.13;;;;;;;15.09;52.16;101166.69;5026654;28;20226;-70
2023/04/28 09:32:15;;;;;;;6.43;4.13;;;;;;;15.01;52.30;101166.63;5020365;28;20541;-71
2023/04/28 09:34:52;;;;;;;10.27;4.50;;;;;;;15.15;52.65;101184.81;5020179;28;20222;-70
2023/04/28 09:37:20;;;;;;;10.57;3.83;;;;;;;15.27;53.09;101192.59;5019641;28;20194;-70
2023/04/28 09:39:48;;;;;;;5.43;4.47;;;;;;;15.33;52.65;101172.84;5027148;28;20243;-72
2023/04/28 09:42:37;;;;;;;4.63;3.87;;;;;;;15.45;51.10;101161.75;5027635;28;20224;-70
2023/04/28 09:45:13;;;;;;;5.43;4.30;;;;;;;15.39;51.61;101169.50;5021662;28;20209;-71
2023/04/28 09:47:43;;;;;;;8.63;3.97;;;;;;;15.32;51.43;101175.41;5026100;28;20336;-71
2023/04/28 09:50:13;;;;;;;5.43;4.10;;;;;;;15.20;51.83;101186.53;5020831;28;20254;-73
2023/04/28 09:52:41;;;;;;;6.00;4.03;;;;;;;14.80;51.05;101176.81;5020021;28;20529;-69
2023/04/28 09:55:10;;;;;;;5.60;4.50;;;;;;;15.16;52.55;101202.88;5027270;28;20232;-70
2023/04/28 09:57:37;;;;;;;8.30;4.20;;;;;;;15.28;50.50;101164.22;5023409;28;20201;-69
2023/04/28 10:00:05;;;;;;;7.30;4.47;;;;;;;15.19;51.38;101181.38;5020646;28;20218;-72
2023/04/28 10:02:33;;;;;;;6.73;4.47;;;;;;;15.58;50.50;101173.88;5025127;28;20198;-71
2023/04/28 10:04:59;;;;;;;5.53;3.77;;;;;;;15.88;49.92;101155.94;5010690;28;20201;-71
2023/04/28 10:07:26;;;;;;;6.47;4.50;;;;;;;16.00;49.07;101145.59;5015393;28;20930;-71
2023/04/28 10:09:52;;;;;;;7.03;4.00;;;;;;;16.46;51.27;101173.28;5004068;28;20249;-70
2023/04/28 10:12:22;;;;;;;9.23;4.10;;;;;;;16.38;48.97;101149.09;4996664;28;20194;-70
2023/04/28 10:14:53;;;;;;;6.77;3.90;;;;;;;16.21;48.10;101182.69;5012139;28;20194;-70
2023/04/28 10:17:20;;;;;;;6.17;4.13;;;;;;;16.63;48.42;101184.50;5023359;28;20226;-72
2023/04/28 10:19:49;;;;;;;5.70;4.23;;;;;;;16.29;47.66;101175.81;5023750;28;20226;-70
2023/04/28 10:22:23;;;;;;;7.73;4.60;;;;;;;16.61;49.02;101194.84;5026874;28;20617;-70
2023/04/28 10:25:13;;;;;;;7.17;4.00;;;;;;;16.83;48.31;101188.81;5028618;28;20193;-72
2023/04/28 10:27:43;;;;;;;5.87;4.33;;;;;;;16.41;48.19;101175.00;5030141;28;20190;-69
2023/04/28 10:30:13;;;;;;;7.30;4.33;;;;;;;16.15;47.84;101167.19;5024402;28;20735;-71
2023/04/28 10:32:40;;;;;;;6.90;4.33;;;;;;;16.01;47.86;101173.16;5025010;28;20195;-70
2023/04/28 10:35:36;;;;;;;5.53;3.93;;;;;;;16.16;49.17;101192.16;5022236;28;20210;-71
2023/04/28 10:38:04;;;;;;;5.40;3.97;;;;;;;16.10;49.47;101189.56;5000761;28;20214;-70
2023/04/28 10:40:34;;;;;;;6.03;3.83;;;;;;;16.09;50.26;101200.75;5031099;28;20215;-70
2023/04/28 10:43:00;;;;;;;10.60;4.67;;;;;;;16.13;50.31;101194.75;5030358;28;20210;-69
2023/04/28 10:45:47;;;;;;;4.87;4.20;;;;;;;15.73;49.66;101169.63;5027762;28;20194;-69
2023/04/28 10:48:13;;;;;;;6.43;4.07;;;;;;;15.77;49.81;101176.53;5025706;28;20214;-72
2023/04/28 10:51:14;;;;;;;7.13;4.73;;;;;;;15.84;50.19;101183.44;5004408;28;20516;-71
2023/04/28 10:53:45;;;;;;;5.83;4.23;;;;;;;15.81;50.26;101185.16;5024224;28;20555;-68
2023/04/28 10:56:18;;;;;;;7.10;4.13;;;;;;;16.27;50.32;101184.44;5027015;28;20198;-71
2023/04/28 10:58:49;;;;;;;6.20;4.17;;;;;;;16.60;50.26;101166.38;5029215;28;20697;-69
2023/04/28 11:01:17;;;;;;;7.27;4.07;;;;;;;16.98;48.70;101146.53;5021976;28;20283;-71
2023/04/28 11:06:35;;;;;;;6.20;4.50;;;;;;;17.58;45.45;101134.28;5022928;28;20208;-69
2023/04/28 11:09:13;;;;;;;8.23;4.30;;;;;;;17.92;45.86;101150.53;5009721;28;20218;-70
2023/04/28 11:11:59;;;;;;;6.97;4.33;;;;;;;17.69;45.29;101137.69;5012685;28;20209;-70
2023/04/28 11:14:28;;;;;;;9.93;4.63;;;;;;;17.69;45.13;101148.03;5016314;28;20580;-73
2023/04/28 11:16:58;;;;;;;7.00;4.33;;;;;;;17.07;45.42;101160.31;4993149;28;20190;-69
2023/04/28 11:19:26;;;;;;;7.53;4.87;;;;;;;17.54;45.89;101160.22;5025355;28;20627;-68
2023/04/28 11:21:56;;;;;;;7.67;4.67;;;;;;;17.36;46.37;101168.88;5022080;28;20203;-69
2023/04/28 11:24:28;;;;;;;7.73;5.03;;;;;;;16.70;46.83;101156.06;5029006;28;20202;-70
2023/04/28 11:26:55;;;;;;;6.40;4.60;;;;;;;16.88;46.90;101173.28;5027544;28;20256;-70